»·PEaware :: N7478CH L52-L88

N7478CH :: L52-L88

FLIGHT INFORMATION

Flight Status: Arrived
Operator: Privately registered:
United States
More flights under this callsign
Pilot: Lee A. (20542)
Aircraft: CESSNA 172 SKYHAWK
(C172)
More flights by this aircraft type
Origin: L52 Oceano Co
United States
Destination: L88 New Cuyama
United States
More flights between these airports :: More routes between these airports
Route:
File this flight plan on PilotEdge
Remarks: CAT1
Altitude:
(Current/Filed)
7,500ft
Speed:
(Current/Filed)
124kts
Departed: 22-Sep-18 06:54 PM
Arrived: 22-Sep-18 07:21 PM
Distance/Time
Traveled:
47nm/0:26
Distance/Time
To Go:
Arrived

Flight Plot

Page will automatically refresh every two minutes.


Map Options




Map Legend


Flown Route
Filed Route
Departure Airport
Arrival Airport
Navaid (VOR, NDB)
Fix

Horizontal Profiles

Position Reports

Time Latitude Longitude Heading Altitude Ground
Speed
22-Sep-18 18:09 35.103406 -120.624442 32 15ft 0kts
22-Sep-18 18:10 35.103406 -120.624442 32 15ft 0kts
22-Sep-18 18:11 35.103406 -120.624442 32 15ft 0kts
22-Sep-18 18:12 35.103406 -120.624442 32 15ft 0kts
22-Sep-18 18:13 35.103406 -120.624442 32 15ft 0kts
22-Sep-18 18:14 35.103406 -120.624442 32 15ft 0kts
22-Sep-18 18:15 35.103406 -120.624442 32 15ft 0kts
22-Sep-18 18:16 35.103406 -120.624442 32 15ft 0kts
22-Sep-18 18:17 35.103406 -120.624442 32 15ft 0kts
22-Sep-18 18:18 35.103406 -120.624442 32 15ft 0kts
22-Sep-18 18:19 35.103406 -120.624442 32 15ft 0kts
22-Sep-18 18:20 35.103406 -120.624442 32 15ft 0kts
22-Sep-18 18:21 35.103406 -120.624442 32 15ft 0kts
22-Sep-18 18:22 35.103406 -120.624442 32 15ft 0kts
22-Sep-18 18:23 35.103406 -120.624442 32 15ft 0kts
22-Sep-18 18:24 35.103406 -120.624442 32 15ft 0kts
22-Sep-18 18:25 35.103406 -120.624442 32 15ft 0kts
22-Sep-18 18:26 35.103406 -120.624442 32 15ft 0kts
22-Sep-18 18:27 35.103406 -120.624442 32 15ft 0kts
22-Sep-18 18:28 35.103406 -120.624442 32 15ft 0kts
22-Sep-18 18:29 35.103406 -120.624442 32 15ft 0kts
22-Sep-18 18:30 35.103406 -120.624442 32 15ft 0kts
22-Sep-18 18:31 35.103406 -120.624442 32 15ft 0kts
22-Sep-18 18:32 35.103406 -120.624442 32 15ft 0kts
22-Sep-18 18:33 35.103406 -120.624442 32 15ft 0kts
22-Sep-18 18:34 35.103406 -120.624442 32 15ft 0kts
22-Sep-18 18:35 35.103406 -120.624442 32 15ft 0kts
22-Sep-18 18:36 35.103406 -120.624442 32 15ft 0kts
22-Sep-18 18:37 35.103406 -120.624442 32 15ft 0kts
22-Sep-18 18:38 35.102224 -120.624201 197 14ft 11kts
22-Sep-18 18:39 35.100630 -120.621502 122 17ft 7kts
22-Sep-18 18:40 35.099448 -120.619459 72 17ft 0kts
22-Sep-18 18:41 35.099448 -120.619458 71 17ft 0kts
22-Sep-18 18:42 35.099449 -120.619458 70 17ft 0kts
22-Sep-18 18:43 35.099501 -120.619330 52 17ft 0kts
22-Sep-18 18:44 35.099501 -120.619330 52 17ft 0kts
22-Sep-18 18:45 35.099501 -120.619330 52 17ft 0kts
22-Sep-18 18:50 35.103406 -120.624442 32 15ft 0kts
22-Sep-18 18:51 35.102954 -120.623663 188 16ft 14kts
22-Sep-18 18:52 35.100347 -120.620972 122 17ft 8kts
22-Sep-18 18:53 35.099685 -120.619748 122 17ft 0kts
22-Sep-18 18:54 35.099685 -120.619749 122 17ft 0kts
22-Sep-18 18:55 35.099669 -120.619191 29 17ft 0kts
22-Sep-18 18:56 35.103641 -120.628788 253 204ft 82kts
22-Sep-18 18:57 35.088394 -120.609344 99 958ft 109kts
22-Sep-18 18:58 35.091578 -120.570665 93 1470ft 120kts
22-Sep-18 18:59 35.086362 -120.532069 99 1866ft 119kts
22-Sep-18 19:00 35.079861 -120.493618 99 1861ft 100kts
22-Sep-18 19:01 35.073539 -120.455467 99 1871ft 126kts
22-Sep-18 19:02 35.066935 -120.414904 99 2367ft 121kts
22-Sep-18 19:03 35.060303 -120.374721 99 2877ft 120kts
22-Sep-18 19:04 35.053609 -120.335091 101 3377ft 120kts
22-Sep-18 19:05 35.046829 -120.295233 101 3874ft 119kts
22-Sep-18 19:06 35.039976 -120.255653 102 4370ft 119kts
22-Sep-18 19:07 35.033187 -120.216935 103 4857ft 116kts
22-Sep-18 19:08 35.027305 -120.182698 103 5343ft 102kts
22-Sep-18 19:09 35.021148 -120.146836 105 5843ft 111kts
22-Sep-18 19:10 35.014715 -120.109714 105 6337ft 111kts
22-Sep-18 19:11 35.008366 -120.072992 106 6827ft 109kts
22-Sep-18 19:12 35.001372 -120.033031 106 6787ft 137kts
22-Sep-18 19:13 34.993104 -119.985640 106 6278ft 137kts
22-Sep-18 19:14 34.985374 -119.941491 106 5769ft 131kts
22-Sep-18 19:15 34.977768 -119.897949 105 5262ft 131kts
22-Sep-18 19:16 34.970687 -119.857411 105 4774ft 122kts
22-Sep-18 19:17 34.963600 -119.816938 105 4270ft 122kts
22-Sep-18 19:18 34.956423 -119.776136 105 3765ft 123kts
22-Sep-18 19:19 34.951310 -119.736144 114 2948ft 114kts
22-Sep-18 19:20 34.941131 -119.703108 113 2558ft 100kts
22-Sep-18 19:21 34.931364 -119.673930 121 2349ft 85kts
22-Sep-18 19:22 34.936826 -119.677631 288 2295ft 83kts
22-Sep-18 19:23 34.941485 -119.689116 272 2161ft 13kts
22-Sep-18 19:24 34.942660 -119.690521 182 2156ft 0kts
22-Sep-18 19:25 34.942611 -119.690498 146 2156ft 0kts
22-Sep-18 19:26 34.942611 -119.690498 146 2156ft 0kts
22-Sep-18 19:27 34.942611 -119.690498 146 2156ft 0kts
22-Sep-18 19:28 34.942611 -119.690498 146 2156ft 0kts
22-Sep-18 19:29 34.942611 -119.690498 146 2156ft 0kts
22-Sep-18 19:30 34.942611 -119.690498 146 2156ft 0kts

Navigation Log

Ident Type
Flight plan parsing failed, navigation log unavailable